sensor_id;sensor_type;location;lat;lon;timestamp;temperature;humidity
40638;DHT22;26336;44.696;10.622;2022-10-30T00:01:16;16.10;99.90
40638;DHT22;26336;44.696;10.622;2022-10-30T00:04:20;16.00;99.90
40638;DHT22;26336;44.696;10.622;2022-10-30T00:07:24;16.00;99.90
40638;DHT22;26336;44.696;10.622;2022-10-30T00:10:28;16.00;99.90
40638;DHT22;26336;44.696;10.622;2022-10-30T00:13:32;16.00;99.90
40638;DHT22;26336;44.696;10.622;2022-10-30T00:16:36;16.00;99.90
40638;DHT22;26336;44.696;10.622;2022-10-30T00:19:39;16.00;99.90
40638;DHT22;26336;44.696;10.622;2022-10-30T00:22:43;16.00;99.90
40638;DHT22;26336;44.696;10.622;2022-10-30T00:25:47;16.00;99.90
40638;DHT22;26336;44.696;10.622;2022-10-30T00:28:53;15.90;99.90
40638;DHT22;26336;44.696;10.622;2022-10-30T00:31:57;15.90;99.90
40638;DHT22;26336;44.696;10.622;2022-10-30T00:35:00;15.90;99.90
40638;DHT22;26336;44.696;10.622;2022-10-30T00:38:04;15.90;99.90
40638;DHT22;26336;44.696;10.622;2022-10-30T00:41:17;15.90;99.90
40638;DHT22;26336;44.696;10.622;2022-10-30T00:47:53;15.90;99.90
40638;DHT22;26336;44.696;10.622;2022-10-30T00:50:59;15.80;99.90
40638;DHT22;26336;44.696;10.622;2022-10-30T00:54:04;15.80;99.90
40638;DHT22;26336;44.696;10.622;2022-10-30T00:57:09;15.70;99.90
40638;DHT22;26336;44.696;10.622;2022-10-30T01:00:14;15.80;99.90
40638;DHT22;26336;44.696;10.622;2022-10-30T01:03:20;15.70;99.90
40638;DHT22;26336;44.696;10.622;2022-10-30T01:06:25;15.70;99.90
40638;DHT22;26336;44.696;10.622;2022-10-30T01:09:31;15.70;99.90
40638;DHT22;26336;44.696;10.622;2022-10-30T01:12:35;15.70;99.90
40638;DHT22;26336;44.696;10.622;2022-10-30T01:15:55;15.70;99.90
40638;DHT22;26336;44.696;10.622;2022-10-30T01:39:39;15.50;99.90
40638;DHT22;26336;44.696;10.622;2022-10-30T01:42:57;15.50;99.90
40638;DHT22;26336;44.696;10.622;2022-10-30T01:46:38;15.50;99.90
40638;DHT22;26336;44.696;10.622;2022-10-30T02:00:17;15.50;99.90
40638;DHT22;26336;44.696;10.622;2022-10-30T02:03:25;15.50;99.90
40638;DHT22;26336;44.696;10.622;2022-10-30T02:06:29;15.50;99.90
40638;DHT22;26336;44.696;10.622;2022-10-30T02:09:34;15.50;99.90
40638;DHT22;26336;44.696;10.622;2022-10-30T02:12:39;15.40;99.90
40638;DHT22;26336;44.696;10.622;2022-10-30T02:15:44;15.40;99.90
40638;DHT22;26336;44.696;10.622;2022-10-30T02:18:49;15.40;99.90
40638;DHT22;26336;44.696;10.622;2022-10-30T02:21:53;15.40;99.90
40638;DHT22;26336;44.696;10.622;2022-10-30T02:24:57;15.30;99.90
40638;DHT22;26336;44.696;10.622;2022-10-30T02:28:02;15.30;99.90
40638;DHT22;26336;44.696;10.622;2022-10-30T02:31:08;15.30;99.90
40638;DHT22;26336;44.696;10.622;2022-10-30T02:34:12;15.30;99.90
40638;DHT22;26336;44.696;10.622;2022-10-30T02:37:16;15.30;99.90
40638;DHT22;26336;44.696;10.622;2022-10-30T02:40:20;15.30;99.90
40638;DHT22;26336;44.696;10.622;2022-10-30T02:43:24;15.30;99.90
40638;DHT22;26336;44.696;10.622;2022-10-30T02:46:28;15.30;99.90
40638;DHT22;26336;44.696;10.622;2022-10-30T02:49:32;15.30;99.90
40638;DHT22;26336;44.696;10.622;2022-10-30T02:52:37;15.20;99.90
40638;DHT22;26336;44.696;10.622;2022-10-30T02:55:41;15.20;99.90
40638;DHT22;26336;44.696;10.622;2022-10-30T02:58:45;15.20;99.90
40638;DHT22;26336;44.696;10.622;2022-10-30T03:01:49;15.20;99.90
40638;DHT22;26336;44.696;10.622;2022-10-30T03:04:53;15.10;99.90
40638;DHT22;26336;44.696;10.622;2022-10-30T03:07:57;15.10;99.90
40638;DHT22;26336;44.696;10.622;2022-10-30T03:11:12;15.10;99.90
40638;DHT22;26336;44.696;10.622;2022-10-30T03:14:17;15.10;99.90
40638;DHT22;26336;44.696;10.622;2022-10-30T03:17:21;15.10;99.90
40638;DHT22;26336;44.696;10.622;2022-10-30T03:20:26;15.10;99.90
40638;DHT22;26336;44.696;10.622;2022-10-30T03:23:30;15.10;99.90
40638;DHT22;26336;44.696;10.622;2022-10-30T03:26:34;15.10;99.90
40638;DHT22;26336;44.696;10.622;2022-10-30T03:29:43;15.10;99.90
40638;DHT22;26336;44.696;10.622;2022-10-30T03:32:49;15.10;99.90
40638;DHT22;26336;44.696;10.622;2022-10-30T03:35:54;15.10;99.90
40638;DHT22;26336;44.696;10.622;2022-10-30T03:38:58;15.10;99.90
40638;DHT22;26336;44.696;10.622;2022-10-30T03:42:03;15.10;99.90
40638;DHT22;26336;44.696;10.622;2022-10-30T03:45:07;15.10;99.90
40638;DHT22;26336;44.696;10.622;2022-10-30T03:48:11;15.10;99.90
40638;DHT22;26336;44.696;10.622;2022-10-30T03:51:15;15.10;99.90
40638;DHT22;26336;44.696;10.622;2022-10-30T03:54:22;15.10;99.90
40638;DHT22;26336;44.696;10.622;2022-10-30T03:57:26;15.10;99.90
40638;DHT22;26336;44.696;10.622;2022-10-30T04:00:52;15.00;99.90
40638;DHT22;26336;44.696;10.622;2022-10-30T04:03:57;15.00;99.90
40638;DHT22;26336;44.696;10.622;2022-10-30T04:07:02;15.00;99.90
40638;DHT22;26336;44.696;10.622;2022-10-30T04:10:06;15.00;99.90
40638;DHT22;26336;44.696;10.622;2022-10-30T04:13:13;15.00;99.90
40638;DHT22;26336;44.696;10.622;2022-10-30T04:16:23;14.90;99.90
40638;DHT22;26336;44.696;10.622;2022-10-30T04:19:27;14.90;99.90
40638;DHT22;26336;44.696;10.622;2022-10-30T04:22:32;14.90;99.90
40638;DHT22;26336;44.696;10.622;2022-10-30T04:25:35;15.00;99.90
40638;DHT22;26336;44.696;10.622;2022-10-30T04:28:39;14.90;99.90
40638;DHT22;26336;44.696;10.622;2022-10-30T04:31:44;14.90;99.90
40638;DHT22;26336;44.696;10.622;2022-10-30T04:34:48;14.90;99.90
40638;DHT22;26336;44.696;10.622;2022-10-30T04:37:59;14.90;99.90
40638;DHT22;26336;44.696;10.622;2022-10-30T04:41:04;14.90;99.90
40638;DHT22;26336;44.696;10.622;2022-10-30T04:44:44;14.90;99.90
40638;DHT22;26336;44.696;10.622;2022-10-30T04:47:48;14.90;99.90
40638;DHT22;26336;44.696;10.622;2022-10-30T04:50:53;14.90;99.90
40638;DHT22;26336;44.696;10.622;2022-10-30T04:54:02;14.90;99.90
40638;DHT22;26336;44.696;10.622;2022-10-30T04:57:08;14.90;99.90
40638;DHT22;26336;44.696;10.622;2022-10-30T05:00:12;14.80;99.90
40638;DHT22;26336;44.696;10.622;2022-10-30T05:03:21;14.80;99.90
40638;DHT22;26336;44.696;10.622;2022-10-30T05:06:27;14.80;99.90
40638;DHT22;26336;44.696;10.622;2022-10-30T05:09:32;14.80;99.90
40638;DHT22;26336;44.696;10.622;2022-10-30T05:12:36;14.80;99.90
40638;DHT22;26336;44.696;10.622;2022-10-30T05:15:40;14.70;99.90
40638;DHT22;26336;44.696;10.622;2022-10-30T05:18:45;14.70;99.90
40638;DHT22;26336;44.696;10.622;2022-10-30T05:21:49;14.70;99.90
40638;DHT22;26336;44.696;10.622;2022-10-30T05:24:54;14.70;99.90
40638;DHT22;26336;44.696;10.622;2022-10-30T05:28:00;14.60;99.90
40638;DHT22;26336;44.696;10.622;2022-10-30T05:31:04;14.60;99.90
40638;DHT22;26336;44.696;10.622;2022-10-30T05:34:34;14.60;99.90
40638;DHT22;26336;44.696;10.622;2022-10-30T05:37:39;14.50;99.90
40638;DHT22;26336;44.696;10.622;2022-10-30T05:40:45;14.40;99.90
40638;DHT22;26336;44.696;10.622;2022-10-30T05:43:50;14.40;99.90
40638;DHT22;26336;44.696;10.622;2022-10-30T05:46:55;14.30;99.90
40638;DHT22;26336;44.696;10.622;2022-10-30T05:50:04;14.30;99.90
40638;DHT22;26336;44.696;10.622;2022-10-30T05:53:09;14.20;99.90
40638;DHT22;26336;44.696;10.622;2022-10-30T05:56:13;14.30;99.90
40638;DHT22;26336;44.696;10.622;2022-10-30T05:59:17;14.30;99.90
40638;DHT22;26336;44.696;10.622;2022-10-30T06:02:21;14.30;99.90
40638;DHT22;26336;44.696;10.622;2022-10-30T06:05:25;14.30;99.90
40638;DHT22;26336;44.696;10.622;2022-10-30T06:08:29;14.30;99.90
40638;DHT22;26336;44.696;10.622;2022-10-30T06:11:36;14.30;99.90
40638;DHT22;26336;44.696;10.622;2022-10-30T06:14:40;14.30;99.90
40638;DHT22;26336;44.696;10.622;2022-10-30T06:17:44;14.30;99.90
40638;DHT22;26336;44.696;10.622;2022-10-30T06:20:55;14.30;99.90
40638;DHT22;26336;44.696;10.622;2022-10-30T06:24:02;14.30;99.90
40638;DHT22;26336;44.696;10.622;2022-10-30T06:27:18;14.30;99.90
40638;DHT22;26336;44.696;10.622;2022-10-30T06:30:23;14.30;99.90
40638;DHT22;26336;44.696;10.622;2022-10-30T06:33:28;14.30;99.90
40638;DHT22;26336;44.696;10.622;2022-10-30T06:36:32;14.40;99.90
40638;DHT22;26336;44.696;10.622;2022-10-30T06:39:36;14.40;99.90
40638;DHT22;26336;44.696;10.622;2022-10-30T06:42:57;14.40;99.90
40638;DHT22;26336;44.696;10.622;2022-10-30T06:46:12;14.40;99.90
40638;DHT22;26336;44.696;10.622;2022-10-30T06:49:18;14.40;99.90
40638;DHT22;26336;44.696;10.622;2022-10-30T06:52:23;14.40;99.90
40638;DHT22;26336;44.696;10.622;2022-10-30T06:55:28;14.50;99.90
40638;DHT22;26336;44.696;10.622;2022-10-30T06:59:00;14.50;99.90
40638;DHT22;26336;44.696;10.622;2022-10-30T07:02:20;14.50;99.90
40638;DHT22;26336;44.696;10.622;2022-10-30T07:05:31;14.60;99.90
40638;DHT22;26336;44.696;10.622;2022-10-30T07:08:36;14.60;99.90
40638;DHT22;26336;44.696;10.622;2022-10-30T07:11:40;14.60;99.90
40638;DHT22;26336;44.696;10.622;2022-10-30T07:15:15;14.60;99.90
40638;DHT22;26336;44.696;10.622;2022-10-30T07:18:31;14.70;99.90
40638;DHT22;26336;44.696;10.622;2022-10-30T07:21:37;14.70;99.90
40638;DHT22;26336;44.696;10.622;2022-10-30T07:24:43;14.80;99.90
40638;DHT22;26336;44.696;10.622;2022-10-30T07:27:56;14.80;99.90
40638;DHT22;26336;44.696;10.622;2022-10-30T07:31:12;14.90;99.90
40638;DHT22;26336;44.696;10.622;2022-10-30T07:34:36;15.00;99.90
40638;DHT22;26336;44.696;10.622;2022-10-30T07:38:09;15.10;99.90
40638;DHT22;26336;44.696;10.622;2022-10-30T07:41:26;15.10;99.90
40638;DHT22;26336;44.696;10.622;2022-10-30T07:44:56;15.20;99.90
40638;DHT22;26336;44.696;10.622;2022-10-30T07:48:13;15.30;99.90
40638;DHT22;26336;44.696;10.622;2022-10-30T07:51:32;15.40;99.90
40638;DHT22;26336;44.696;10.622;2022-10-30T07:54:36;15.50;99.90
40638;DHT22;26336;44.696;10.622;2022-10-30T07:58:03;15.60;99.90
40638;DHT22;26336;44.696;10.622;2022-10-30T08:01:26;15.80;99.90
40638;DHT22;26336;44.696;10.622;2022-10-30T08:04:31;15.90;99.90
40638;DHT22;26336;44.696;10.622;2022-10-30T08:07:45;16.10;99.90
40638;DHT22;26336;44.696;10.622;2022-10-30T08:10:49;16.20;99.90
40638;DHT22;26336;44.696;10.622;2022-10-30T08:13:53;16.40;99.90
40638;DHT22;26336;44.696;10.622;2022-10-30T08:16:57;16.50;99.90
40638;DHT22;26336;44.696;10.622;2022-10-30T08:20:02;16.70;99.90
40638;DHT22;26336;44.696;10.622;2022-10-30T08:23:07;16.80;99.90
40638;DHT22;26336;44.696;10.622;2022-10-30T08:26:12;16.90;99.90
40638;DHT22;26336;44.696;10.622;2022-10-30T08:29:16;17.10;99.90
40638;DHT22;26336;44.696;10.622;2022-10-30T08:32:21;17.10;99.90
40638;DHT22;26336;44.696;10.622;2022-10-30T08:35:52;17.30;99.90
40638;DHT22;26336;44.696;10.622;2022-10-30T08:38:56;17.40;99.90
40638;DHT22;26336;44.696;10.622;2022-10-30T08:42:23;17.50;99.90
40638;DHT22;26336;44.696;10.622;2022-10-30T08:45:27;17.60;99.90
40638;DHT22;26336;44.696;10.622;2022-10-30T08:48:40;17.70;99.90
40638;DHT22;26336;44.696;10.622;2022-10-30T08:51:44;17.80;99.90
40638;DHT22;26336;44.696;10.622;2022-10-30T08:54:48;17.90;99.90
40638;DHT22;26336;44.696;10.622;2022-10-30T08:57:52;18.00;99.90
40638;DHT22;26336;44.696;10.622;2022-10-30T09:00:56;18.00;99.90
40638;DHT22;26336;44.696;10.622;2022-10-30T09:04:20;18.00;99.90
40638;DHT22;26336;44.696;10.622;2022-10-30T09:08:05;18.10;99.90
40638;DHT22;26336;44.696;10.622;2022-10-30T09:11:36;18.10;99.90
40638;DHT22;26336;44.696;10.622;2022-10-30T09:14:41;18.20;99.90
40638;DHT22;26336;44.696;10.622;2022-10-30T09:17:46;18.20;99.90
40638;DHT22;26336;44.696;10.622;2022-10-30T09:20:50;18.30;99.90
40638;DHT22;26336;44.696;10.622;2022-10-30T09:23:54;18.30;99.90
40638;DHT22;26336;44.696;10.622;2022-10-30T09:27:20;18.30;99.90
40638;DHT22;26336;44.696;10.622;2022-10-30T09:30:26;18.40;99.90
40638;DHT22;26336;44.696;10.622;2022-10-30T09:33:32;18.40;99.90
40638;DHT22;26336;44.696;10.622;2022-10-30T09:36:56;18.50;99.90
40638;DHT22;26336;44.696;10.622;2022-10-30T09:40:01;18.50;99.90
40638;DHT22;26336;44.696;10.622;2022-10-30T09:43:18;18.60;99.90
40638;DHT22;26336;44.696;10.622;2022-10-30T09:50:18;18.60;99.90
40638;DHT22;26336;44.696;10.622;2022-10-30T09:57:28;18.70;99.90
40638;DHT22;26336;44.696;10.622;2022-10-30T10:00:39;18.70;99.90
40638;DHT22;26336;44.696;10.622;2022-10-30T10:03:56;18.70;99.90
40638;DHT22;26336;44.696;10.622;2022-10-30T10:07:31;18.80;99.90
40638;DHT22;26336;44.696;10.622;2022-10-30T10:10:51;18.90;99.90
40638;DHT22;26336;44.696;10.622;2022-10-30T10:17:25;19.00;99.90
40638;DHT22;26336;44.696;10.622;2022-10-30T10:20:39;19.10;99.90
40638;DHT22;26336;44.696;10.622;2022-10-30T10:23:49;19.10;99.90
40638;DHT22;26336;44.696;10.622;2022-10-30T10:27:11;19.20;99.90
40638;DHT22;26336;44.696;10.622;2022-10-30T10:30:23;19.30;99.90
40638;DHT22;26336;44.696;10.622;2022-10-30T10:51:11;19.60;99.90
40638;DHT22;26336;44.696;10.622;2022-10-30T10:54:28;19.60;99.90
40638;DHT22;26336;44.696;10.622;2022-10-30T10:57:36;19.70;99.90
40638;DHT22;26336;44.696;10.622;2022-10-30T11:00:40;19.70;99.90
40638;DHT22;26336;44.696;10.622;2022-10-30T11:03:59;19.70;99.90
40638;DHT22;26336;44.696;10.622;2022-10-30T11:07:37;19.70;99.90
40638;DHT22;26336;44.696;10.622;2022-10-30T11:10:42;19.80;99.90
40638;DHT22;26336;44.696;10.622;2022-10-30T11:13:47;19.80;99.90
40638;DHT22;26336;44.696;10.622;2022-10-30T11:16:58;19.80;99.90
40638;DHT22;26336;44.696;10.622;2022-10-30T11:20:27;19.90;99.90
40638;DHT22;26336;44.696;10.622;2022-10-30T11:23:35;19.90;99.90
40638;DHT22;26336;44.696;10.622;2022-10-30T11:26:42;19.90;99.90
40638;DHT22;26336;44.696;10.622;2022-10-30T11:29:52;19.90;99.90
40638;DHT22;26336;44.696;10.622;2022-10-30T11:32:58;20.00;99.90
40638;DHT22;26336;44.696;10.622;2022-10-30T11:36:07;20.00;99.90
40638;DHT22;26336;44.696;10.622;2022-10-30T11:39:29;20.10;99.90
40638;DHT22;26336;44.696;10.622;2022-10-30T11:42:34;20.10;99.90
40638;DHT22;26336;44.696;10.622;2022-10-30T11:45:42;20.10;99.90
40638;DHT22;26336;44.696;10.622;2022-10-30T11:48:46;20.10;99.90
40638;DHT22;26336;44.696;10.622;2022-10-30T11:51:57;20.10;99.90
40638;DHT22;26336;44.696;10.622;2022-10-30T11:58:37;20.20;99.90
40638;DHT22;26336;44.696;10.622;2022-10-30T12:02:23;20.20;99.90
40638;DHT22;26336;44.696;10.622;2022-10-30T12:05:31;20.30;99.90
40638;DHT22;26336;44.696;10.622;2022-10-30T12:08:36;20.30;99.90
40638;DHT22;26336;44.696;10.622;2022-10-30T12:11:41;20.30;99.90
40638;DHT22;26336;44.696;10.622;2022-10-30T12:14:48;20.30;99.90
40638;DHT22;26336;44.696;10.622;2022-10-30T12:17:54;20.40;99.90
40638;DHT22;26336;44.696;10.622;2022-10-30T12:21:01;20.40;99.90
40638;DHT22;26336;44.696;10.622;2022-10-30T12:24:14;20.50;99.90
40638;DHT22;26336;44.696;10.622;2022-10-30T12:27:19;20.50;99.90
40638;DHT22;26336;44.696;10.622;2022-10-30T12:30:23;20.50;99.90
40638;DHT22;26336;44.696;10.622;2022-10-30T12:36:51;20.50;99.90
40638;DHT22;26336;44.696;10.622;2022-10-30T12:40:28;20.50;99.90
40638;DHT22;26336;44.696;10.622;2022-10-30T12:43:34;20.50;99.90
40638;DHT22;26336;44.696;10.622;2022-10-30T12:46:52;20.50;99.90
40638;DHT22;26336;44.696;10.622;2022-10-30T12:50:00;20.60;99.90
40638;DHT22;26336;44.696;10.622;2022-10-30T12:53:26;20.70;99.90
40638;DHT22;26336;44.696;10.622;2022-10-30T12:56:38;20.70;99.90
40638;DHT22;26336;44.696;10.622;2022-10-30T12:59:46;20.70;99.90
40638;DHT22;26336;44.696;10.622;2022-10-30T13:03:00;20.80;99.90
40638;DHT22;26336;44.696;10.622;2022-10-30T13:06:17;20.80;99.90
40638;DHT22;26336;44.696;10.622;2022-10-30T13:09:26;20.70;99.90
40638;DHT22;26336;44.696;10.622;2022-10-30T13:12:37;20.70;99.90
40638;DHT22;26336;44.696;10.622;2022-10-30T13:15:49;20.70;99.90
40638;DHT22;26336;44.696;10.622;2022-10-30T13:18:59;20.70;99.90
40638;DHT22;26336;44.696;10.622;2022-10-30T13:22:05;20.70;99.90
40638;DHT22;26336;44.696;10.622;2022-10-30T13:28:58;20.70;99.90
40638;DHT22;26336;44.696;10.622;2022-10-30T13:39:02;20.80;99.90
40638;DHT22;26336;44.696;10.622;2022-10-30T13:42:21;20.80;99.90
40638;DHT22;26336;44.696;10.622;2022-10-30T13:52:30;21.00;99.90
40638;DHT22;26336;44.696;10.622;2022-10-30T13:55:36;20.90;99.90
40638;DHT22;26336;44.696;10.622;2022-10-30T14:09:20;21.10;99.90
40638;DHT22;26336;44.696;10.622;2022-10-30T14:12:52;21.10;99.90
40638;DHT22;26336;44.696;10.622;2022-10-30T14:16:41;21.10;99.90
40638;DHT22;26336;44.696;10.622;2022-10-30T14:23:13;21.00;99.90
40638;DHT22;26336;44.696;10.622;2022-10-30T14:26:19;21.00;99.90
40638;DHT22;26336;44.696;10.622;2022-10-30T14:32:38;21.10;99.90
40638;DHT22;26336;44.696;10.622;2022-10-30T14:35:42;21.00;99.90
40638;DHT22;26336;44.696;10.622;2022-10-30T14:38:53;21.00;99.90
40638;DHT22;26336;44.696;10.622;2022-10-30T14:42:23;20.90;99.90
40638;DHT22;26336;44.696;10.622;2022-10-30T14:48:59;20.80;99.90
40638;DHT22;26336;44.696;10.622;2022-10-30T14:58:37;20.80;99.90
40638;DHT22;26336;44.696;10.622;2022-10-30T15:05:23;20.80;99.90
40638;DHT22;26336;44.696;10.622;2022-10-30T15:09:50;20.70;99.90
40638;DHT22;26336;44.696;10.622;2022-10-30T15:16:03;20.60;99.90
40638;DHT22;26336;44.696;10.622;2022-10-30T15:19:11;20.50;99.90
40638;DHT22;26336;44.696;10.622;2022-10-30T15:22:19;20.50;99.90
40638;DHT22;26336;44.696;10.622;2022-10-30T15:25:32;20.50;99.90
40638;DHT22;26336;44.696;10.622;2022-10-30T15:28:37;20.50;99.90
40638;DHT22;26336;44.696;10.622;2022-10-30T15:31:43;20.40;99.90
40638;DHT22;26336;44.696;10.622;2022-10-30T15:35:00;20.40;99.90
40638;DHT22;26336;44.696;10.622;2022-10-30T15:38:08;20.30;99.90
40638;DHT22;26336;44.696;10.622;2022-10-30T15:41:16;20.20;99.90
40638;DHT22;26336;44.696;10.622;2022-10-30T15:44:32;20.10;99.90
40638;DHT22;26336;44.696;10.622;2022-10-30T15:47:44;20.10;99.90
40638;DHT22;26336;44.696;10.622;2022-10-30T15:54:03;20.00;99.90
40638;DHT22;26336;44.696;10.622;2022-10-30T15:57:23;19.90;99.90
40638;DHT22;26336;44.696;10.622;2022-10-30T16:00:36;19.90;99.90
40638;DHT22;26336;44.696;10.622;2022-10-30T16:03:40;19.90;99.90
40638;DHT22;26336;44.696;10.622;2022-10-30T16:06:52;19.80;99.90
40638;DHT22;26336;44.696;10.622;2022-10-30T16:09:57;19.80;99.90
40638;DHT22;26336;44.696;10.622;2022-10-30T16:13:03;19.70;99.90
40638;DHT22;26336;44.696;10.622;2022-10-30T16:16:14;19.60;99.90
40638;DHT22;26336;44.696;10.622;2022-10-30T16:19:25;19.60;99.90
40638;DHT22;26336;44.696;10.622;2022-10-30T16:22:36;19.60;99.90
40638;DHT22;26336;44.696;10.622;2022-10-30T16:25:41;19.60;99.90
40638;DHT22;26336;44.696;10.622;2022-10-30T16:28:46;19.50;99.90
40638;DHT22;26336;44.696;10.622;2022-10-30T16:31:51;19.40;99.90
40638;DHT22;26336;44.696;10.622;2022-10-30T16:35:04;19.40;99.90
40638;DHT22;26336;44.696;10.622;2022-10-30T16:38:10;19.30;99.90
40638;DHT22;26336;44.696;10.622;2022-10-30T16:41:15;19.30;99.90
40638;DHT22;26336;44.696;10.622;2022-10-30T16:44:31;19.20;99.90
40638;DHT22;26336;44.696;10.622;2022-10-30T16:47:37;19.30;99.90
40638;DHT22;26336;44.696;10.622;2022-10-30T16:50:42;19.30;99.90
40638;DHT22;26336;44.696;10.622;2022-10-30T16:53:48;19.20;99.90
40638;DHT22;26336;44.696;10.622;2022-10-30T16:56:54;19.20;99.90
40638;DHT22;26336;44.696;10.622;2022-10-30T16:59:59;19.20;99.90
40638;DHT22;26336;44.696;10.622;2022-10-30T17:03:07;19.20;99.90
40638;DHT22;26336;44.696;10.622;2022-10-30T17:09:29;19.10;99.90
40638;DHT22;26336;44.696;10.622;2022-10-30T17:12:38;19.10;99.90
40638;DHT22;26336;44.696;10.622;2022-10-30T17:15:44;19.00;99.90
40638;DHT22;26336;44.696;10.622;2022-10-30T17:18:55;19.10;99.90
40638;DHT22;26336;44.696;10.622;2022-10-30T17:22:02;19.00;99.90
40638;DHT22;26336;44.696;10.622;2022-10-30T17:25:48;19.00;99.90
40638;DHT22;26336;44.696;10.622;2022-10-30T17:28:52;19.00;99.90
40638;DHT22;26336;44.696;10.622;2022-10-30T17:31:57;18.90;99.90
40638;DHT22;26336;44.696;10.622;2022-10-30T17:35:20;18.90;99.90
40638;DHT22;26336;44.696;10.622;2022-10-30T17:38:24;18.90;99.90
40638;DHT22;26336;44.696;10.622;2022-10-30T17:41:28;18.80;99.90
40638;DHT22;26336;44.696;10.622;2022-10-30T17:44:34;18.70;99.90
40638;DHT22;26336;44.696;10.622;2022-10-30T17:47:41;18.70;99.90
40638;DHT22;26336;44.696;10.622;2022-10-30T17:50:45;18.70;99.90
40638;DHT22;26336;44.696;10.622;2022-10-30T17:53:49;18.70;99.90
40638;DHT22;26336;44.696;10.622;2022-10-30T17:56:53;18.70;99.90
40638;DHT22;26336;44.696;10.622;2022-10-30T17:59:57;18.60;99.90
40638;DHT22;26336;44.696;10.622;2022-10-30T18:03:04;18.60;99.90
40638;DHT22;26336;44.696;10.622;2022-10-30T18:06:15;18.60;99.90
40638;DHT22;26336;44.696;10.622;2022-10-30T18:09:20;18.50;99.90
40638;DHT22;26336;44.696;10.622;2022-10-30T18:12:24;18.50;99.90
40638;DHT22;26336;44.696;10.622;2022-10-30T18:15:33;18.50;99.90
40638;DHT22;26336;44.696;10.622;2022-10-30T18:18:39;18.50;99.90
40638;DHT22;26336;44.696;10.622;2022-10-30T18:21:43;18.40;99.90
40638;DHT22;26336;44.696;10.622;2022-10-30T18:24:51;18.40;99.90
40638;DHT22;26336;44.696;10.622;2022-10-30T18:27:55;18.40;99.90
40638;DHT22;26336;44.696;10.622;2022-10-30T18:30:59;18.30;99.90
40638;DHT22;26336;44.696;10.622;2022-10-30T18:34:10;18.30;99.90
40638;DHT22;26336;44.696;10.622;2022-10-30T18:37:16;18.30;99.90
40638;DHT22;26336;44.696;10.622;2022-10-30T18:40:20;18.30;99.90
40638;DHT22;26336;44.696;10.622;2022-10-30T18:43:24;18.30;99.90
40638;DHT22;26336;44.696;10.622;2022-10-30T18:46:32;18.20;99.90
40638;DHT22;26336;44.696;10.622;2022-10-30T18:49:37;18.20;99.90
40638;DHT22;26336;44.696;10.622;2022-10-30T18:52:41;18.20;99.90
40638;DHT22;26336;44.696;10.622;2022-10-30T18:55:45;18.20;99.90
40638;DHT22;26336;44.696;10.622;2022-10-30T18:58:50;18.20;99.90
40638;DHT22;26336;44.696;10.622;2022-10-30T19:01:54;18.10;99.90
40638;DHT22;26336;44.696;10.622;2022-10-30T19:04:58;18.10;99.90
40638;DHT22;26336;44.696;10.622;2022-10-30T19:08:03;18.10;99.90
40638;DHT22;26336;44.696;10.622;2022-10-30T19:11:19;18.00;99.90
40638;DHT22;26336;44.696;10.622;2022-10-30T19:14:23;18.00;99.90
40638;DHT22;26336;44.696;10.622;2022-10-30T19:17:27;18.00;99.90
40638;DHT22;26336;44.696;10.622;2022-10-30T19:20:31;18.00;99.90
40638;DHT22;26336;44.696;10.622;2022-10-30T19:23:36;17.90;99.90
40638;DHT22;26336;44.696;10.622;2022-10-30T19:26:40;17.90;99.90
40638;DHT22;26336;44.696;10.622;2022-10-30T19:29:44;17.80;99.90
40638;DHT22;26336;44.696;10.622;2022-10-30T19:32:47;17.80;99.90
40638;DHT22;26336;44.696;10.622;2022-10-30T19:35:53;17.80;99.90
40638;DHT22;26336;44.696;10.622;2022-10-30T19:38:57;17.80;99.90
40638;DHT22;26336;44.696;10.622;2022-10-30T19:42:01;17.70;99.90
40638;DHT22;26336;44.696;10.622;2022-10-30T19:45:05;17.70;99.90
40638;DHT22;26336;44.696;10.622;2022-10-30T19:48:18;17.70;99.90
40638;DHT22;26336;44.696;10.622;2022-10-30T19:51:22;17.60;99.90
40638;DHT22;26336;44.696;10.622;2022-10-30T19:54:26;17.60;99.90
40638;DHT22;26336;44.696;10.622;2022-10-30T19:57:30;17.60;99.90
40638;DHT22;26336;44.696;10.622;2022-10-30T20:00:36;17.60;99.90
40638;DHT22;26336;44.696;10.622;2022-10-30T20:03:40;17.60;99.90
40638;DHT22;26336;44.696;10.622;2022-10-30T20:06:44;17.50;99.90
40638;DHT22;26336;44.696;10.622;2022-10-30T20:09:48;17.50;99.90
40638;DHT22;26336;44.696;10.622;2022-10-30T20:12:52;17.50;99.90
40638;DHT22;26336;44.696;10.622;2022-10-30T20:15:58;17.50;99.90
40638;DHT22;26336;44.696;10.622;2022-10-30T20:19:26;17.50;99.90
40638;DHT22;26336;44.696;10.622;2022-10-30T20:22:29;17.40;99.90
40638;DHT22;26336;44.696;10.622;2022-10-30T20:25:34;17.40;99.90
40638;DHT22;26336;44.696;10.622;2022-10-30T20:28:40;17.40;99.90
40638;DHT22;26336;44.696;10.622;2022-10-30T20:31:45;17.40;99.90
40638;DHT22;26336;44.696;10.622;2022-10-30T20:34:49;17.30;99.90
40638;DHT22;26336;44.696;10.622;2022-10-30T20:37:59;17.30;99.90
40638;DHT22;26336;44.696;10.622;2022-10-30T20:41:04;17.30;99.90
40638;DHT22;26336;44.696;10.622;2022-10-30T20:44:11;17.30;99.90
40638;DHT22;26336;44.696;10.622;2022-10-30T20:47:15;17.30;99.90
40638;DHT22;26336;44.696;10.622;2022-10-30T20:50:19;17.20;99.90
40638;DHT22;26336;44.696;10.622;2022-10-30T20:53:24;17.20;99.90
40638;DHT22;26336;44.696;10.622;2022-10-30T20:56:28;17.20;99.90
40638;DHT22;26336;44.696;10.622;2022-10-30T20:59:32;17.20;99.90
40638;DHT22;26336;44.696;10.622;2022-10-30T21:02:36;17.10;99.90
40638;DHT22;26336;44.696;10.622;2022-10-30T21:05:43;17.10;99.90
40638;DHT22;26336;44.696;10.622;2022-10-30T21:08:47;17.10;99.90
40638;DHT22;26336;44.696;10.622;2022-10-30T21:11:55;17.10;99.90
40638;DHT22;26336;44.696;10.622;2022-10-30T21:14:59;17.00;99.90
40638;DHT22;26336;44.696;10.622;2022-10-30T21:18:05;17.00;99.90
40638;DHT22;26336;44.696;10.622;2022-10-30T21:21:10;17.00;99.90
40638;DHT22;26336;44.696;10.622;2022-10-30T21:24:18;17.00;99.90
40638;DHT22;26336;44.696;10.622;2022-10-30T21:27:22;17.00;99.90
40638;DHT22;26336;44.696;10.622;2022-10-30T21:30:29;17.00;99.90
40638;DHT22;26336;44.696;10.622;2022-10-30T21:33:34;17.00;99.90
40638;DHT22;26336;44.696;10.622;2022-10-30T21:36:39;16.90;99.90
40638;DHT22;26336;44.696;10.622;2022-10-30T21:39:43;16.90;99.90
40638;DHT22;26336;44.696;10.622;2022-10-30T21:42:47;16.90;99.90